createdAt,value
2022-10-11T00:00:03.073Z,12.38
2022-10-11T00:01:03.117Z,12.38
2022-10-11T00:02:03.065Z,12.38
2022-10-11T00:03:03.054Z,12.38
2022-10-11T00:04:03.031Z,12.38
2022-10-11T00:05:03.041Z,12.40
2022-10-11T00:06:03.566Z,12.41
2022-10-11T00:07:03.031Z,12.41
2022-10-11T00:08:03.006Z,12.40
2022-10-11T00:09:02.992Z,12.41
2022-10-11T00:10:02.982Z,12.40
2022-10-11T00:11:02.975Z,12.43
2022-10-11T00:12:02.977Z,12.40
2022-10-11T00:13:02.996Z,12.43
2022-10-11T00:14:02.957Z,12.43
2022-10-11T00:15:02.944Z,12.43
2022-10-11T00:16:03.239Z,12.44
2022-10-11T00:17:02.939Z,12.44
2022-10-11T00:18:05.430Z,12.41
2022-10-11T00:19:02.916Z,12.44
2022-10-11T00:20:02.909Z,12.44
2022-10-11T00:21:02.895Z,12.44
2022-10-11T00:22:02.889Z,12.44
2022-10-11T00:23:02.890Z,12.43
2022-10-11T00:24:02.870Z,12.46
2022-10-11T00:25:02.892Z,12.46
2022-10-11T00:26:03.281Z,12.44
2022-10-11T00:27:02.852Z,12.49
2022-10-11T00:28:02.829Z,12.48
2022-10-11T00:29:02.832Z,12.46
2022-10-11T00:30:02.809Z,12.46
2022-10-11T00:31:03.236Z,12.48
2022-10-11T00:32:02.796Z,12.49
2022-10-11T00:33:02.789Z,12.51
2022-10-11T00:34:02.770Z,12.52
2022-10-11T00:35:02.784Z,12.52
2022-10-11T00:36:03.131Z,12.52
2022-10-11T00:37:02.786Z,12.52
2022-10-11T00:38:02.755Z,12.51
2022-10-11T00:39:02.745Z,12.52
2022-10-11T00:40:02.724Z,12.52
2022-10-11T00:41:02.735Z,12.52
2022-10-11T00:42:02.717Z,12.52
2022-10-11T00:43:02.736Z,12.55
2022-10-11T00:44:02.684Z,12.54
2022-10-11T00:45:02.697Z,12.54
2022-10-11T00:46:03.127Z,12.55
2022-10-11T00:47:02.685Z,12.55
2022-10-11T00:48:02.655Z,12.55
2022-10-11T00:49:02.679Z,12.56
2022-10-11T00:50:02.637Z,12.58
2022-10-11T00:51:03.008Z,12.58
2022-10-11T00:52:02.624Z,12.59
2022-10-11T00:53:02.616Z,12.59
2022-10-11T00:54:02.618Z,12.59
2022-10-11T00:55:02.653Z,12.59
2022-10-11T00:56:02.881Z,12.59
2022-10-11T00:57:02.589Z,12.62
2022-10-11T00:58:02.590Z,12.61
2022-10-11T00:59:02.559Z,12.62
2022-10-11T01:00:02.561Z,12.61
2022-10-11T01:01:02.599Z,12.62
2022-10-11T01:02:02.553Z,12.63
2022-10-11T01:03:02.546Z,12.62
2022-10-11T01:04:02.536Z,12.62
2022-10-11T01:05:27.615Z,12.63
2022-10-11T01:06:02.812Z,12.66
2022-10-11T01:07:02.530Z,12.66
2022-10-11T01:08:02.497Z,12.67
2022-10-11T01:09:02.474Z,12.66
2022-10-11T01:10:02.492Z,12.67
2022-10-11T01:11:02.476Z,12.67
2022-10-11T01:12:02.466Z,12.69
2022-10-11T01:13:02.463Z,12.69
2022-10-11T01:14:02.455Z,12.71
2022-10-11T01:15:02.423Z,12.67
2022-10-11T01:16:02.904Z,12.70
2022-10-11T01:17:02.418Z,12.71
2022-10-11T01:18:02.404Z,12.70
2022-10-11T01:19:02.406Z,12.70
2022-10-11T01:20:02.385Z,12.71
2022-10-11T01:21:02.376Z,12.70
2022-10-11T01:22:02.380Z,12.71
2022-10-11T01:23:02.356Z,12.70
2022-10-11T01:24:07.508Z,12.71
2022-10-11T01:25:02.371Z,12.71
2022-10-11T01:26:02.765Z,12.73
2022-10-11T01:27:02.318Z,12.74
2022-10-11T01:28:02.333Z,12.73
2022-10-11T01:29:02.298Z,12.76
2022-10-11T01:30:02.313Z,12.76
2022-10-11T01:31:02.300Z,12.76
2022-10-11T01:32:02.293Z,12.76
2022-10-11T01:33:02.283Z,12.76
2022-10-11T01:34:02.280Z,12.74
2022-10-11T01:35:02.266Z,12.77
2022-10-11T01:36:02.665Z,12.80
2022-10-11T01:37:02.264Z,12.77
2022-10-11T01:38:02.243Z,12.77
2022-10-11T01:39:02.211Z,12.80
2022-10-11T01:40:02.212Z,12.79
2022-10-11T01:41:02.209Z,12.80
2022-10-11T01:42:02.202Z,12.77
2022-10-11T01:43:02.207Z,12.79
2022-10-11T01:44:02.187Z,12.80
2022-10-11T01:45:02.156Z,12.84
2022-10-11T01:46:02.582Z,12.80
2022-10-11T01:47:02.141Z,12.84
2022-10-11T01:48:02.154Z,12.81
2022-10-11T01:49:02.148Z,12.81
2022-10-11T01:50:02.116Z,12.81
2022-10-11T01:51:02.120Z,12.84
2022-10-11T01:52:02.106Z,12.85
2022-10-11T01:53:02.104Z,12.84
2022-10-11T01:54:02.101Z,12.85
2022-10-11T01:55:09.553Z,12.81
2022-10-11T01:56:02.466Z,12.85
2022-10-11T01:57:02.047Z,12.85
2022-10-11T01:58:02.050Z,12.85
2022-10-11T01:59:02.044Z,12.88
2022-10-11T02:00:02.028Z,12.87
2022-10-11T02:01:02.209Z,12.85
2022-10-11T02:02:02.022Z,12.88
2022-10-11T02:03:02.000Z,12.87
2022-10-11T02:04:02.003Z,12.87
2022-10-11T02:05:01.981Z,12.87
2022-10-11T02:06:02.462Z,12.89
2022-10-11T02:07:01.995Z,12.89
2022-10-11T02:08:01.953Z,12.88
2022-10-11T02:09:05.700Z,12.89
2022-10-11T02:10:01.934Z,12.92
2022-10-11T02:11:01.922Z,12.91
2022-10-11T02:12:01.944Z,12.87
2022-10-11T02:13:01.938Z,12.91
2022-10-11T02:14:01.903Z,12.91
2022-10-11T02:15:01.884Z,12.91
2022-10-11T02:16:02.345Z,12.91
2022-10-11T02:17:01.887Z,12.91
2022-10-11T02:18:01.879Z,12.92
2022-10-11T02:19:01.875Z,12.92
2022-10-11T02:20:01.858Z,12.91
2022-10-11T02:21:01.835Z,12.88
2022-10-11T02:22:01.838Z,12.91
2022-10-11T02:23:01.830Z,12.89
2022-10-11T02:24:01.827Z,12.91
2022-10-11T02:25:01.838Z,12.92
2022-10-11T02:26:02.076Z,12.94
2022-10-11T02:27:01.778Z,12.92
2022-10-11T02:28:01.777Z,12.92
2022-10-11T02:29:01.758Z,12.92
2022-10-11T02:30:01.759Z,12.92
2022-10-11T02:31:01.772Z,12.92
2022-10-11T02:32:01.740Z,12.92
2022-10-11T02:33:01.743Z,12.91
2022-10-11T02:34:01.742Z,12.91
2022-10-11T02:35:01.712Z,12.92
2022-10-11T02:36:01.958Z,12.94
2022-10-11T02:37:01.719Z,12.91
2022-10-11T02:38:01.692Z,12.94
2022-10-11T02:39:01.672Z,12.92
2022-10-11T02:40:01.698Z,12.94
2022-10-11T02:41:01.660Z,12.94
2022-10-11T02:42:01.665Z,12.95
2022-10-11T02:43:01.666Z,12.95
2022-10-11T02:44:01.640Z,12.96
2022-10-11T02:45:01.623Z,12.96
2022-10-11T02:46:01.947Z,12.95
2022-10-11T02:47:01.629Z,12.96
2022-10-11T02:48:01.603Z,12.98
2022-10-11T02:49:01.619Z,12.96
2022-10-11T02:50:01.585Z,12.96
2022-10-11T02:51:01.574Z,12.99
2022-10-11T02:52:01.565Z,12.98
2022-10-11T02:53:01.569Z,12.99
2022-10-11T02:54:01.557Z,12.98
2022-10-11T02:55:01.572Z,12.98
2022-10-11T02:56:01.820Z,12.96
2022-10-11T02:57:01.533Z,12.99
2022-10-11T02:58:01.521Z,12.98
2022-10-11T02:59:01.509Z,13.01
2022-10-11T03:00:01.513Z,12.99
2022-10-11T03:01:01.526Z,12.98
2022-10-11T03:02:01.549Z,12.98
2022-10-11T03:03:01.478Z,12.99
2022-10-11T03:04:01.483Z,13.01
2022-10-11T03:05:01.463Z,12.98
2022-10-11T03:06:01.867Z,13.01
2022-10-11T03:07:01.465Z,12.99
2022-10-11T03:08:01.439Z,12.99
2022-10-11T03:09:01.435Z,13.01
2022-10-11T03:10:01.424Z,13.03
2022-10-11T03:11:01.404Z,13.03
2022-10-11T03:12:01.402Z,13.04
2022-10-11T03:13:01.426Z,13.03
2022-10-11T03:14:01.396Z,13.03
2022-10-11T03:15:01.376Z,13.04
2022-10-11T03:16:03.622Z,13.03
2022-10-11T03:17:23.644Z,13.03
2022-10-11T03:18:01.357Z,13.03
2022-10-11T03:19:01.352Z,13.03
2022-10-11T03:20:01.346Z,13.03
2022-10-11T03:21:01.315Z,13.04
2022-10-11T03:22:01.316Z,12.99
2022-10-11T03:23:01.317Z,13.03
2022-10-11T03:24:01.309Z,13.03
2022-10-11T03:25:04.284Z,13.04
2022-10-11T03:26:01.325Z,13.06
2022-10-11T03:27:01.280Z,13.06
2022-10-11T03:28:01.267Z,13.04
2022-10-11T03:29:01.251Z,13.07
2022-10-11T03:30:01.261Z,13.06
2022-10-11T03:31:01.252Z,13.07
2022-10-11T03:32:01.230Z,13.06
2022-10-11T03:33:01.234Z,13.07
2022-10-11T03:34:01.232Z,13.09
2022-10-11T03:35:01.214Z,13.07
2022-10-11T03:36:01.333Z,13.06
2022-10-11T03:37:01.190Z,13.07
2022-10-11T03:38:01.183Z,13.09
2022-10-11T03:39:01.186Z,13.09
2022-10-11T03:40:01.181Z,13.09
2022-10-11T03:41:01.166Z,13.09
2022-10-11T03:42:01.153Z,13.09
2022-10-11T03:43:01.155Z,13.12
2022-10-11T03:44:01.132Z,13.10
2022-10-11T03:45:01.130Z,13.10
2022-10-11T03:46:01.131Z,13.10
2022-10-11T03:47:01.104Z,13.10
2022-10-11T03:48:01.127Z,13.09
2022-10-11T03:49:01.109Z,13.10
2022-10-11T03:50:01.082Z,13.09
2022-10-11T03:51:01.065Z,13.09
2022-10-11T03:52:01.079Z,13.12
2022-10-11T03:53:01.054Z,13.09
2022-10-11T03:54:01.046Z,13.09
2022-10-11T03:55:01.057Z,13.10
2022-10-11T03:56:05.894Z,13.10
2022-10-11T03:57:01.017Z,13.10
2022-10-11T03:58:01.030Z,13.12
2022-10-11T03:59:01.011Z,13.09
2022-10-11T04:00:01.011Z,13.10
2022-10-11T04:01:01.021Z,13.10
2022-10-11T04:02:01.056Z,13.07
2022-10-11T04:03:00.969Z,13.10
2022-10-11T04:04:00.970Z,13.12
2022-10-11T04:05:00.963Z,13.10
2022-10-11T04:06:00.980Z,13.10
2022-10-11T04:07:00.951Z,13.09
2022-10-11T04:08:00.930Z,13.09
2022-10-11T04:09:00.921Z,13.12
2022-10-11T04:10:00.911Z,13.12
2022-10-11T04:11:00.901Z,13.10
2022-10-11T04:12:00.906Z,13.12
2022-10-11T04:13:00.906Z,13.12
2022-10-11T04:14:00.895Z,13.09
2022-10-11T04:15:00.883Z,13.09
2022-10-11T04:16:01.033Z,13.10
2022-10-11T04:17:00.870Z,13.09
2022-10-11T04:18:00.844Z,13.10
2022-10-11T04:19:00.864Z,13.09
2022-10-11T04:20:00.845Z,13.09
2022-10-11T04:21:00.828Z,13.09
2022-10-11T04:22:00.817Z,13.09
2022-10-11T04:23:00.804Z,13.07
2022-10-11T04:24:00.796Z,13.09
2022-10-11T04:25:00.810Z,13.09
2022-10-11T04:26:00.851Z,13.07
2022-10-11T04:27:00.767Z,13.09
2022-10-11T04:28:00.782Z,13.07
2022-10-11T04:29:00.767Z,13.06
2022-10-11T04:30:00.747Z,13.06
2022-10-11T04:31:00.761Z,13.06
2022-10-11T04:32:00.732Z,13.06
2022-10-11T04:33:00.718Z,13.04
2022-10-11T04:34:00.709Z,13.04
2022-10-11T04:35:00.699Z,13.03
2022-10-11T04:36:00.725Z,13.03
2022-10-11T04:37:00.718Z,13.03
2022-10-11T04:38:00.693Z,13.03
2022-10-11T04:39:00.670Z,13.01
2022-10-11T04:40:00.661Z,12.98
2022-10-11T04:41:00.653Z,12.99
2022-10-11T04:42:00.657Z,12.98
2022-10-11T04:43:00.665Z,12.98
2022-10-11T04:44:00.646Z,12.99
2022-10-11T04:45:00.626Z,12.98
2022-10-11T04:46:00.628Z,12.98
2022-10-11T04:47:00.607Z,12.96
2022-10-11T04:48:00.610Z,12.96
2022-10-11T04:49:00.593Z,12.94
2022-10-11T04:50:00.588Z,12.96
2022-10-11T04:51:00.574Z,12.96
2022-10-11T04:52:00.579Z,12.94
2022-10-11T04:53:00.560Z,12.95
2022-10-11T04:54:00.566Z,12.95
2022-10-11T04:55:00.556Z,12.94
2022-10-11T04:56:00.540Z,12.94
2022-10-11T04:57:00.529Z,12.91
2022-10-11T04:58:00.511Z,12.89
2022-10-11T04:59:00.512Z,12.89
2022-10-11T05:00:00.497Z,12.89
2022-10-11T05:01:00.508Z,12.89
2022-10-11T05:02:00.550Z,12.88
2022-10-11T05:03:00.468Z,12.84
2022-10-11T05:04:00.469Z,12.84
2022-10-11T05:05:00.462Z,12.84
2022-10-11T05:06:05.183Z,12.84
2022-10-11T05:07:00.455Z,12.80
2022-10-11T05:08:00.445Z,12.80
2022-10-11T05:09:00.424Z,12.79
2022-10-11T05:10:00.414Z,12.77
2022-10-11T05:11:00.401Z,12.76
2022-10-11T05:12:00.391Z,12.74
2022-10-11T05:13:00.402Z,12.73
2022-10-11T05:14:00.385Z,12.70
2022-10-11T05:15:00.371Z,12.74
2022-10-11T05:16:00.353Z,12.74
2022-10-11T05:17:00.353Z,12.73
2022-10-11T05:18:00.357Z,12.70
2022-10-11T05:19:00.364Z,12.70
2022-10-11T05:20:00.324Z,12.66
2022-10-11T05:21:00.329Z,12.70
2022-10-11T05:22:00.436Z,12.67
2022-10-11T05:23:00.317Z,12.70
2022-10-11T05:24:00.299Z,12.67
2022-10-11T05:25:00.310Z,12.67
2022-10-11T05:26:00.267Z,12.67
2022-10-11T05:27:03.357Z,12.63
2022-10-11T05:28:00.260Z,12.63
2022-10-11T05:29:00.330Z,12.66
2022-10-11T05:30:00.253Z,12.66
2022-10-11T05:31:00.261Z,12.62
2022-10-11T05:32:00.217Z,12.63
2022-10-11T05:33:00.209Z,12.63
2022-10-11T05:34:00.202Z,12.62
2022-10-11T05:35:00.202Z,12.61
2022-10-11T05:36:00.180Z,12.62
2022-10-11T05:37:00.306Z,12.62
2022-10-11T05:38:00.176Z,12.61
2022-10-11T05:39:00.161Z,12.61
2022-10-11T05:40:00.152Z,12.59
2022-10-11T05:41:00.141Z,12.62
2022-10-11T05:42:00.131Z,12.61
2022-10-11T05:43:00.146Z,12.61
2022-10-11T05:44:00.131Z,12.62
2022-10-11T05:45:00.128Z,12.59
2022-10-11T05:46:00.092Z,12.62
2022-10-11T05:47:00.106Z,12.62
2022-10-11T05:48:00.091Z,12.59
2022-10-11T05:49:00.166Z,12.59
2022-10-11T05:50:00.129Z,12.59
2022-10-11T05:51:00.076Z,12.62
2022-10-11T05:52:00.060Z,12.62
2022-10-11T05:53:00.073Z,12.61
2022-10-11T05:54:00.040Z,12.62
2022-10-11T05:55:00.045Z,12.62
2022-10-11T05:56:00.006Z,12.63
2022-10-11T05:57:00.006Z,12.63
2022-10-11T05:57:59.997Z,12.66
2022-10-11T05:59:02.368Z,12.63
2022-10-11T05:59:59.979Z,12.66
2022-10-11T06:01:00.057Z,12.67
2022-10-11T06:01:59.972Z,12.67
2022-10-11T06:02:59.972Z,12.69
2022-10-11T06:03:59.941Z,12.70
2022-10-11T06:04:59.945Z,12.70
2022-10-11T06:05:59.938Z,12.69
2022-10-11T06:06:59.949Z,12.70
2022-10-11T06:07:59.925Z,12.73
2022-10-11T06:08:59.924Z,12.73
2022-10-11T06:09:59.890Z,12.71
2022-10-11T06:10:59.893Z,12.74
2022-10-11T06:11:59.955Z,12.74
2022-10-11T06:12:59.926Z,12.74
2022-10-11T06:13:59.875Z,12.74
2022-10-11T06:14:59.867Z,12.74
2022-10-11T06:15:59.844Z,12.76
2022-10-11T06:16:59.840Z,12.73
2022-10-11T06:17:59.837Z,12.74
2022-10-11T06:18:59.834Z,12.76
2022-10-11T06:19:59.803Z,12.77
2022-10-11T06:20:59.814Z,12.77
2022-10-11T06:21:59.809Z,12.74
2022-10-11T06:22:59.806Z,12.76
2022-10-11T06:24:01.561Z,12.77
2022-10-11T06:24:59.807Z,12.76
2022-10-11T06:25:59.757Z,12.77
2022-10-11T06:26:59.770Z,12.77
2022-10-11T06:27:59.745Z,12.80
2022-10-11T06:28:59.790Z,12.80
2022-10-11T06:29:59.727Z,12.81
2022-10-11T06:30:59.730Z,12.84
2022-10-11T06:31:59.708Z,12.84
2022-10-11T06:33:04.446Z,12.85
2022-10-11T06:33:59.703Z,12.87
2022-10-11T06:34:59.688Z,12.87
2022-10-11T06:35:59.678Z,12.87
2022-10-11T06:36:59.704Z,12.89
2022-10-11T06:37:59.660Z,12.91
2022-10-11T06:38:59.661Z,12.94
2022-10-11T06:39:59.640Z,12.94
2022-10-11T06:40:59.654Z,12.92
2022-10-11T06:41:59.629Z,12.96
2022-10-11T06:42:59.643Z,12.95
2022-10-11T06:43:59.626Z,12.96
2022-10-11T06:44:59.617Z,12.99
2022-10-11T06:45:59.593Z,13.01
2022-10-11T06:46:59.733Z,13.01
2022-10-11T06:47:59.587Z,13.07
2022-10-11T06:48:59.608Z,13.06
2022-10-11T06:49:59.567Z,13.06
2022-10-11T06:51:00.683Z,13.07
2022-10-11T06:51:59.566Z,13.10
2022-10-11T06:52:59.558Z,13.10
2022-10-11T06:53:59.536Z,13.13
2022-10-11T06:54:59.550Z,13.14
2022-10-11T06:55:59.507Z,13.14
2022-10-11T06:56:59.536Z,13.16
2022-10-11T06:57:59.500Z,13.16
2022-10-11T06:58:59.504Z,13.16
2022-10-11T06:59:59.488Z,13.16
2022-10-11T07:00:59.555Z,13.17
2022-10-11T07:01:59.458Z,13.17
2022-10-11T07:02:59.448Z,13.21
2022-10-11T07:03:59.453Z,13.19
2022-10-11T07:04:59.453Z,13.21
2022-10-11T07:06:02.393Z,13.22
2022-10-11T07:06:59.439Z,13.22
2022-10-11T07:07:59.413Z,13.25
2022-10-11T07:08:59.411Z,13.25
2022-10-11T07:09:59.391Z,13.28
2022-10-11T07:10:59.391Z,13.29
2022-10-11T07:11:59.385Z,13.29
2022-10-11T07:12:59.382Z,13.31
2022-10-11T07:13:59.367Z,13.31
2022-10-11T07:14:59.366Z,13.32
2022-10-11T07:15:59.332Z,13.35
2022-10-11T07:16:59.354Z,13.36
2022-10-11T07:17:59.324Z,13.38
2022-10-11T07:19:00.671Z,13.39
2022-10-11T07:19:59.304Z,13.43
2022-10-11T07:20:59.317Z,13.41
2022-10-11T07:21:59.284Z,13.44
2022-10-11T07:22:59.284Z,13.46
2022-10-11T07:23:59.292Z,13.47
2022-10-11T07:24:59.274Z,13.50
2022-10-11T07:25:59.259Z,13.51
2022-10-11T07:26:59.246Z,13.51
2022-10-11T07:27:59.247Z,13.55
2022-10-11T07:28:59.303Z,13.57
2022-10-11T07:29:59.216Z,13.59
2022-10-11T07:30:59.229Z,13.59
2022-10-11T07:31:59.199Z,13.63
2022-10-11T07:32:59.201Z,13.63
2022-10-11T07:33:59.193Z,13.66
2022-10-11T07:34:59.210Z,13.68
2022-10-11T07:35:59.159Z,13.68
2022-10-11T07:36:59.191Z,13.66
2022-10-11T07:37:59.171Z,13.71
2022-10-11T07:38:59.153Z,13.71
2022-10-11T07:39:59.135Z,13.71
2022-10-11T07:40:59.134Z,13.73
2022-10-11T07:41:59.124Z,13.72
2022-10-11T07:42:59.111Z,13.73
2022-10-11T07:43:59.092Z,13.72
2022-10-11T07:44:59.082Z,13.76
2022-10-11T07:45:59.090Z,13.75
2022-10-11T07:46:59.096Z,13.79
2022-10-11T07:47:59.078Z,13.76
2022-10-11T07:48:59.054Z,13.76
2022-10-11T07:49:59.034Z,13.79
2022-10-11T07:50:59.046Z,13.81
2022-10-11T07:51:59.014Z,13.81
2022-10-11T07:52:59.028Z,13.84
2022-10-11T07:54:01.349Z,13.84
2022-10-11T07:54:59.036Z,13.86
2022-10-11T07:55:58.996Z,13.86
2022-10-11T07:56:58.977Z,13.87
2022-10-11T07:57:58.965Z,13.86
2022-10-11T07:58:58.971Z,13.88
2022-10-11T07:59:58.948Z,13.90
2022-10-11T08:00:58.985Z,13.88
2022-10-11T08:01:59.053Z,13.91
2022-10-11T08:02:58.931Z,13.91
2022-10-11T08:03:58.908Z,13.94
2022-10-11T08:04:58.921Z,13.94
2022-10-11T08:05:58.889Z,13.94
2022-10-11T08:06:58.903Z,13.93
2022-10-11T08:07:58.871Z,13.98
2022-10-11T08:08:58.871Z,13.99
2022-10-11T08:09:58.851Z,13.98
2022-10-11T08:10:58.863Z,13.99
2022-10-11T08:11:58.846Z,13.99
2022-10-11T08:13:04.130Z,14.02
2022-10-11T08:13:58.822Z,14.02
2022-10-11T08:14:58.826Z,14.02
2022-10-11T08:15:58.815Z,14.04
2022-10-11T08:16:58.803Z,14.04
2022-10-11T08:17:58.797Z,14.05
2022-10-11T08:18:58.806Z,14.06
2022-10-11T08:19:58.762Z,14.08
2022-10-11T08:20:58.769Z,14.08
2022-10-11T08:21:58.744Z,14.06
2022-10-11T08:22:58.767Z,14.09
2022-10-11T08:23:58.726Z,14.08
2022-10-11T08:24:58.740Z,14.09
2022-10-11T08:25:58.719Z,14.09
2022-10-11T08:26:58.706Z,14.12
2022-10-11T08:27:58.704Z,14.09
2022-10-11T08:28:58.708Z,14.09
2022-10-11T08:29:58.682Z,14.12
2022-10-11T08:30:58.682Z,14.13
2022-10-11T08:31:58.662Z,14.13
2022-10-11T08:32:58.661Z,14.12
2022-10-11T08:33:58.642Z,14.13
2022-10-11T08:34:58.644Z,14.13
2022-10-11T08:35:58.629Z,14.17
2022-10-11T08:36:58.635Z,14.19
2022-10-11T08:37:58.590Z,14.19
2022-10-11T08:38:58.604Z,14.20
2022-10-11T08:39:58.594Z,14.20
2022-10-11T08:40:58.592Z,14.21
2022-10-11T08:41:58.566Z,14.24
2022-10-11T08:42:58.586Z,14.27
2022-10-11T08:43:58.556Z,14.27
2022-10-11T08:45:10.427Z,14.30
2022-10-11T08:45:58.536Z,14.30
2022-10-11T08:47:00.542Z,14.31
2022-10-11T08:47:58.503Z,14.35
2022-10-11T08:48:58.513Z,14.35
2022-10-11T08:49:58.485Z,14.38
2022-10-11T08:50:58.487Z,14.39
2022-10-11T08:51:58.478Z,14.38
2022-10-11T08:52:58.478Z,14.39
2022-10-11T08:53:59.817Z,14.41
2022-10-11T08:54:58.465Z,14.45
2022-10-11T08:55:58.425Z,14.45
2022-10-11T08:56:58.427Z,14.45
2022-10-11T08:57:58.421Z,14.45
2022-10-11T08:58:58.418Z,14.48
2022-10-11T08:59:58.401Z,14.48
2022-10-11T09:00:58.398Z,14.48
2022-10-11T09:01:58.406Z,14.49
2022-10-11T09:03:13.182Z,14.48
2022-10-11T09:03:58.359Z,14.48
2022-10-11T09:04:58.348Z,14.52
2022-10-11T09:05:58.338Z,14.49
2022-10-11T09:07:01.341Z,14.52
2022-10-11T09:07:58.333Z,14.52
2022-10-11T09:08:58.339Z,14.52
2022-10-11T09:09:58.315Z,14.53
2022-10-11T09:10:58.294Z,14.53
2022-10-11T09:11:58.288Z,14.52
2022-10-11T09:12:58.315Z,14.56
2022-10-11T09:13:58.262Z,14.53
2022-10-11T09:14:58.264Z,14.57
2022-10-11T09:15:58.245Z,14.54
2022-10-11T09:16:58.256Z,14.54
2022-10-11T09:17:58.225Z,14.57
2022-10-11T09:18:58.233Z,14.56
2022-10-11T09:19:58.218Z,14.57
2022-10-11T09:20:58.204Z,14.56
2022-10-11T09:21:58.184Z,14.56
2022-10-11T09:22:58.197Z,14.59
2022-10-11T09:23:58.181Z,14.60
2022-10-11T09:24:58.209Z,14.61
2022-10-11T09:25:58.146Z,14.61
2022-10-11T09:26:58.146Z,14.63
2022-10-11T09:28:02.851Z,14.66
2022-10-11T09:29:01.252Z,14.71
2022-10-11T09:29:58.130Z,14.72
2022-10-11T09:30:58.140Z,14.78
2022-10-11T09:31:58.249Z,14.79
2022-10-11T09:32:58.113Z,14.83
2022-10-11T09:33:58.078Z,14.85
2022-10-11T09:34:58.085Z,14.86
2022-10-11T09:35:58.073Z,14.90
2022-10-11T09:36:58.059Z,14.93
2022-10-11T09:37:58.054Z,14.95
2022-10-11T09:38:58.054Z,14.94
2022-10-11T09:39:58.021Z,14.95
2022-10-11T09:40:58.025Z,15.00
2022-10-11T09:41:58.004Z,15.03
2022-10-11T09:42:58.012Z,15.03
2022-10-11T09:43:57.996Z,15.05
2022-10-11T09:44:57.981Z,15.05
2022-10-11T09:45:57.976Z,15.12
2022-10-11T09:46:57.968Z,15.13
2022-10-11T09:47:57.944Z,15.15
2022-10-11T09:48:57.953Z,15.19
2022-10-11T09:49:57.937Z,15.19
2022-10-11T09:50:57.962Z,15.23
2022-10-11T09:51:57.917Z,15.27
2022-10-11T09:52:58.066Z,15.30
2022-10-11T09:53:57.896Z,15.33
2022-10-11T09:54:57.901Z,15.34
2022-10-11T09:55:57.890Z,15.38
2022-10-11T09:56:57.871Z,15.41
2022-10-11T09:57:57.857Z,15.43
2022-10-11T09:58:57.838Z,15.44
2022-10-11T09:59:57.852Z,15.49
2022-10-11T10:00:57.842Z,15.51
2022-10-11T10:01:57.882Z,15.51
2022-10-11T10:02:57.806Z,15.52
2022-10-11T10:03:57.799Z,15.56
2022-10-11T10:04:57.803Z,15.58
2022-10-11T10:05:57.794Z,15.60
2022-10-11T10:06:57.788Z,15.60
2022-10-11T10:08:00.587Z,15.62
2022-10-11T10:08:57.751Z,15.66
2022-10-11T10:09:57.743Z,15.66
2022-10-11T10:10:59.595Z,15.70
2022-10-11T10:11:57.729Z,15.73
2022-10-11T10:12:57.737Z,15.76
2022-10-11T10:13:57.716Z,15.78
2022-10-11T10:14:57.694Z,15.81
2022-10-11T10:15:57.693Z,15.81
2022-10-11T10:16:57.687Z,15.86
2022-10-11T10:17:57.678Z,15.88
2022-10-11T10:18:57.730Z,15.88
2022-10-11T10:19:57.656Z,15.89
2022-10-11T10:20:57.652Z,15.88
2022-10-11T10:21:57.648Z,15.91
2022-10-11T10:22:57.661Z,15.91
2022-10-11T10:23:57.638Z,15.89
2022-10-11T10:24:57.617Z,15.88
2022-10-11T10:25:57.611Z,15.89
2022-10-11T10:26:57.602Z,15.89
2022-10-11T10:27:57.591Z,15.88
2022-10-11T10:28:57.604Z,15.88
2022-10-11T10:29:57.573Z,15.89
2022-10-11T10:30:57.560Z,15.88
2022-10-11T10:32:14.676Z,15.88
2022-10-11T10:32:57.530Z,15.86
2022-10-11T10:33:57.520Z,15.86
2022-10-11T10:34:57.526Z,15.84
2022-10-11T10:35:57.521Z,15.84
2022-10-11T10:36:57.502Z,15.80
2022-10-11T10:37:57.519Z,15.81
2022-10-11T10:38:57.488Z,15.80
2022-10-11T10:39:57.476Z,15.81
2022-10-11T10:40:57.453Z,15.84
2022-10-11T10:41:57.466Z,15.85
2022-10-11T10:42:57.458Z,15.85
2022-10-11T10:43:57.448Z,15.85
2022-10-11T10:44:57.415Z,15.85
2022-10-11T10:45:57.427Z,15.86
2022-10-11T10:46:57.395Z,15.88
2022-10-11T10:47:57.395Z,15.88
2022-10-11T10:49:57.391Z,15.89
2022-10-11T10:50:57.369Z,15.89
2022-10-11T10:51:57.370Z,15.91
2022-10-11T10:52:57.347Z,15.91
2022-10-11T10:53:57.338Z,15.92
2022-10-11T10:54:57.338Z,15.93
2022-10-11T10:55:57.340Z,15.93
